ヨハネスブルグ の空港の天気 - METARとTAF

ヨハネスブルグ/O.R.タンボ国際空港 ( FAOR / JNB ) - 南アフリカ ヨハネスブルグ
飛行場実況気象(Metar)
観測時間11/27 11:00 SAST (11/27 09:00 UTC)
風向・風速北 3m/s
視程10km以上
天気現象
なし
気温21℃
湿度46%
気圧1019hPa
METARFAOR 270900Z VRB05KT CAVOK 21/09 Q1019 NOSIG
過去の天気等 Google飛行場航空写真 Wunderground天気予報

過去48時間のMETAR

飛行場予報(TAF)
発表時間: 11/27 06:00 SAST (11/27 04:00 UTC)
予報対象時間: 27日8時 SAST ~ 28日14時 SAST
風向・風速北北西 5m/s
視程10km以上
なし
27日8時 SAST ~ 27日9時 SAST に一時的に
天気現象弱いしゅう雨
全天の8割程度の雲 雲底高度 370m
少しの塔状積雲 雲底高度 1070m
27日13時 SAST ~ 27日15時 SAST に徐々に
風向・風速不定 2m/s
全天の4割程度の雲 雲底高度 1070m
27日17時 SAST ~ 27日19時 SAST に徐々に
風向・風速南南東 5m/s
27日17時 SAST ~ 27日24時 SAST に 確率 30% で一時的に
天気現象弱い雷雨
少しの積乱雲 雲底高度 1070m
27日22時 SAST ~ 27日24時 SAST に徐々に
風向・風速東 6m/s
全天の8割程度の雲 雲底高度 300m
28日8時 SAST ~ 28日10時 SAST に徐々に
全天の8割程度の雲 雲底高度 610m
TAF FAOR 270400Z 2706/2812 33010KT CAVOK TX22/2713Z TN14/2803Z
TEMPO 2706/2707 -SHRA BKN012 FEW035TCU
BECMG 2711/2713 VRB03KT SCT035
BECMG 2715/2717 15009KT
PROB30 TEMPO 2715/2722 -TSRA FEW035CB
BECMG 2720/2722 08012KT BKN010
BECMG 2806/2808 BKN020